createdAt,value
2022-08-22T00:03:11.845Z,12.71
2022-08-22T00:03:24.931Z,12.64
2022-08-22T00:04:24.922Z,12.59
2022-08-22T00:05:25.020Z,12.57
2022-08-22T00:06:24.924Z,12.57
2022-08-22T00:07:24.872Z,12.57
2022-08-22T00:08:24.856Z,12.57
2022-08-22T00:09:24.838Z,12.55
2022-08-22T00:10:25.425Z,12.53
2022-08-22T00:11:24.815Z,12.50
2022-08-22T00:12:24.844Z,12.50
2022-08-22T00:13:24.779Z,12.50
2022-08-22T00:14:24.801Z,12.50
2022-08-22T00:15:42.581Z,12.50
2022-08-22T00:16:24.814Z,12.49
2022-08-22T00:17:24.744Z,12.49
2022-08-22T00:18:24.741Z,12.49
2022-08-22T00:19:24.726Z,12.48
2022-08-22T00:20:28.190Z,12.47
2022-08-22T00:21:24.684Z,12.46
2022-08-22T00:22:24.704Z,12.45
2022-08-22T00:23:24.671Z,12.44
2022-08-22T00:24:24.629Z,12.41
2022-08-22T00:25:26.122Z,12.38
2022-08-22T00:26:24.635Z,12.34
2022-08-22T00:27:24.609Z,12.30
2022-08-22T00:28:24.607Z,12.30
2022-08-22T00:29:24.562Z,12.33
2022-08-22T00:30:24.573Z,12.36
2022-08-22T00:31:24.555Z,12.37
2022-08-22T00:32:24.564Z,12.39
2022-08-22T00:33:24.519Z,12.41
2022-08-22T00:34:24.522Z,12.43
2022-08-22T00:35:24.514Z,12.44
2022-08-22T00:36:24.495Z,12.44
2022-08-22T00:37:24.488Z,12.42
2022-08-22T00:38:24.442Z,12.38
2022-08-22T00:39:24.444Z,12.34
2022-08-22T00:40:24.447Z,12.31
2022-08-22T00:41:24.442Z,12.28
2022-08-22T00:42:31.564Z,12.23
2022-08-22T00:43:24.386Z,12.20
2022-08-22T00:44:24.377Z,12.19
2022-08-22T00:45:24.363Z,12.21
2022-08-22T00:46:24.339Z,12.24
2022-08-22T00:47:24.319Z,12.28
2022-08-22T00:48:24.339Z,12.30
2022-08-22T00:49:25.401Z,12.28
2022-08-22T00:50:24.288Z,12.24
2022-08-22T00:51:24.380Z,12.23
2022-08-22T00:52:24.255Z,12.24
2022-08-22T00:53:24.281Z,12.24
2022-08-22T00:54:24.268Z,12.24
2022-08-22T00:55:24.228Z,12.24
2022-08-22T00:56:24.232Z,12.23
2022-08-22T00:57:24.213Z,12.20
2022-08-22T00:58:24.228Z,12.17
2022-08-22T00:59:24.318Z,12.14
2022-08-22T01:00:24.142Z,12.13
2022-08-22T01:01:24.206Z,12.13
2022-08-22T01:02:24.136Z,12.11
2022-08-22T01:03:24.121Z,12.09
2022-08-22T01:04:24.127Z,12.07
2022-08-22T01:05:24.090Z,12.06
2022-08-22T01:06:24.099Z,12.06
2022-08-22T01:07:24.085Z,12.06
2022-08-22T01:08:24.076Z,12.04
2022-08-22T01:09:24.061Z,12.00
2022-08-22T01:10:24.045Z,11.97
2022-08-22T01:11:24.014Z,11.94
2022-08-22T01:12:24.010Z,11.90
2022-08-22T01:13:24.006Z,11.85
2022-08-22T01:14:34.558Z,11.83
2022-08-22T01:15:23.977Z,11.84
2022-08-22T01:16:23.947Z,11.87
2022-08-22T01:17:23.928Z,11.91
2022-08-22T01:18:23.936Z,11.95
2022-08-22T01:19:23.928Z,11.98
2022-08-22T01:20:23.942Z,11.97
2022-08-22T01:21:24.140Z,11.95
2022-08-22T01:22:23.895Z,11.90
2022-08-22T01:23:23.859Z,11.86
2022-08-22T01:24:24.201Z,11.83
2022-08-22T01:25:25.980Z,11.80
2022-08-22T01:26:23.932Z,11.78
2022-08-22T01:27:23.810Z,11.77
2022-08-22T01:28:23.811Z,11.76
2022-08-22T01:29:27.722Z,11.78
2022-08-22T01:30:23.762Z,11.79
2022-08-22T01:31:23.746Z,11.79
2022-08-22T01:32:23.759Z,11.78
2022-08-22T01:33:23.718Z,11.76
2022-08-22T01:34:23.736Z,11.78
2022-08-22T01:35:23.704Z,11.81
2022-08-22T01:36:23.712Z,11.84
2022-08-22T01:37:23.667Z,11.86
2022-08-22T01:38:23.669Z,11.87
2022-08-22T01:39:23.648Z,11.87
2022-08-22T01:40:23.868Z,11.84
2022-08-22T01:41:23.636Z,11.82
2022-08-22T01:42:23.583Z,11.80
2022-08-22T01:43:43.866Z,11.80
2022-08-22T01:44:23.578Z,11.80
2022-08-22T01:45:23.568Z,11.82
2022-08-22T01:46:23.556Z,11.83
2022-08-22T01:47:23.509Z,11.84
2022-08-22T01:48:23.532Z,11.85
2022-08-22T01:49:23.559Z,11.83
2022-08-22T01:50:23.523Z,11.81
2022-08-22T01:51:23.479Z,11.79
2022-08-22T01:52:23.462Z,11.76
2022-08-22T01:53:23.447Z,11.74
2022-08-22T01:54:23.417Z,11.73
2022-08-22T01:55:23.424Z,11.73
2022-08-22T01:56:23.428Z,11.72
2022-08-22T01:57:23.418Z,11.74
2022-08-22T01:58:23.371Z,11.76
2022-08-22T01:59:28.922Z,11.78
2022-08-22T02:00:34.893Z,11.79
2022-08-22T02:01:23.349Z,11.81
2022-08-22T02:02:23.363Z,11.81
2022-08-22T02:03:23.330Z,11.81
2022-08-22T02:04:23.341Z,11.78
2022-08-22T02:05:23.270Z,11.74
2022-08-22T02:06:23.294Z,11.71
2022-08-22T02:07:24.164Z,11.71
2022-08-22T02:08:23.246Z,11.72
2022-08-22T02:09:23.228Z,11.74
2022-08-22T02:10:23.201Z,11.76
2022-08-22T02:11:23.198Z,11.77
2022-08-22T02:12:23.205Z,11.77
2022-08-22T02:13:23.188Z,11.76
2022-08-22T02:14:23.168Z,11.76
2022-08-22T02:15:23.135Z,11.77
2022-08-22T02:16:23.129Z,11.78
2022-08-22T02:17:23.104Z,11.80
2022-08-22T02:18:23.160Z,11.80
2022-08-22T02:19:23.079Z,11.81
2022-08-22T02:20:23.093Z,11.81
2022-08-22T02:21:23.095Z,11.80
2022-08-22T02:22:23.206Z,11.79
2022-08-22T02:23:23.049Z,11.76
2022-08-22T02:24:23.060Z,11.73
2022-08-22T02:25:23.024Z,11.70
2022-08-22T02:26:23.029Z,11.67
2022-08-22T02:27:22.989Z,11.63
2022-08-22T02:28:23.041Z,11.60
2022-08-22T02:29:22.966Z,11.59
2022-08-22T02:30:22.969Z,11.61
2022-08-22T02:31:22.939Z,11.63
2022-08-22T02:32:22.933Z,11.65
2022-08-22T02:33:22.902Z,11.66
2022-08-22T02:34:22.907Z,11.66
2022-08-22T02:35:22.895Z,11.66
2022-08-22T02:36:22.854Z,11.66
2022-08-22T02:37:22.836Z,11.67
2022-08-22T02:38:22.848Z,11.68
2022-08-22T02:39:22.820Z,11.69
2022-08-22T02:40:22.871Z,11.67
2022-08-22T02:41:22.787Z,11.63
2022-08-22T02:42:22.851Z,11.59
2022-08-22T02:43:22.771Z,11.54
2022-08-22T02:44:22.766Z,11.49
2022-08-22T02:45:22.798Z,11.45
2022-08-22T02:46:22.730Z,11.41
2022-08-22T02:47:22.718Z,11.39
2022-08-22T02:48:22.734Z,11.39
2022-08-22T02:49:22.683Z,11.40
2022-08-22T02:50:22.693Z,11.39
2022-08-22T02:51:22.679Z,11.38
2022-08-22T02:52:22.645Z,11.36
2022-08-22T02:53:22.629Z,11.36
2022-08-22T02:54:22.640Z,11.38
2022-08-22T02:55:22.647Z,11.41
2022-08-22T02:56:22.611Z,11.44
2022-08-22T02:57:22.608Z,11.47
2022-08-22T02:58:22.562Z,11.47
2022-08-22T02:59:22.565Z,11.47
2022-08-22T03:00:31.426Z,11.46
2022-08-22T03:01:22.629Z,11.46
2022-08-22T03:02:22.502Z,11.47
2022-08-22T03:03:22.510Z,11.48
2022-08-22T03:04:22.490Z,11.48
2022-08-22T03:05:22.464Z,11.46
2022-08-22T03:06:22.460Z,11.46
2022-08-22T03:07:22.452Z,11.46
2022-08-22T03:08:22.419Z,11.46
2022-08-22T03:09:22.408Z,11.43
2022-08-22T03:10:22.405Z,11.40
2022-08-22T03:11:22.394Z,11.37
2022-08-22T03:12:22.366Z,11.36
2022-08-22T03:13:22.356Z,11.37
2022-08-22T03:14:22.339Z,11.41
2022-08-22T03:15:22.326Z,11.44
2022-08-22T03:16:22.339Z,11.46
2022-08-22T03:17:22.343Z,11.46
2022-08-22T03:18:22.306Z,11.47
2022-08-22T03:19:22.325Z,11.50
2022-08-22T03:20:22.274Z,11.54
2022-08-22T03:21:22.276Z,11.60
2022-08-22T03:22:22.236Z,11.65
2022-08-22T03:23:22.265Z,11.69
2022-08-22T03:24:22.221Z,11.72
2022-08-22T03:25:22.210Z,11.72
2022-08-22T03:26:22.253Z,11.73
2022-08-22T03:27:32.334Z,11.74
2022-08-22T03:28:22.160Z,11.74
2022-08-22T03:29:22.163Z,11.75
2022-08-22T03:30:22.145Z,11.76
2022-08-22T03:31:22.135Z,11.77
2022-08-22T03:32:22.126Z,11.78
2022-08-22T03:33:22.086Z,11.80
2022-08-22T03:34:22.076Z,11.81
2022-08-22T03:35:22.076Z,11.83
2022-08-22T03:36:22.047Z,11.83
2022-08-22T03:37:22.073Z,11.83
2022-08-22T03:38:22.035Z,11.81
2022-08-22T03:39:22.039Z,11.78
2022-08-22T03:40:22.075Z,11.76
2022-08-22T03:41:21.978Z,11.75
2022-08-22T03:42:21.991Z,11.77
2022-08-22T03:43:22.008Z,11.80
2022-08-22T03:44:21.948Z,11.83
2022-08-22T03:45:21.955Z,11.86
2022-08-22T03:46:21.911Z,11.89
2022-08-22T03:47:21.917Z,11.92
2022-08-22T03:48:21.898Z,11.94
2022-08-22T03:49:21.955Z,11.95
2022-08-22T03:50:21.869Z,11.96
2022-08-22T03:51:21.871Z,11.96
2022-08-22T03:52:21.866Z,11.97
2022-08-22T03:53:21.863Z,11.98
2022-08-22T03:54:21.817Z,11.99
2022-08-22T03:55:21.807Z,12.00
2022-08-22T03:56:21.775Z,12.01
2022-08-22T03:57:21.769Z,12.02
2022-08-22T03:58:28.005Z,12.03
2022-08-22T03:59:21.743Z,12.04
2022-08-22T04:00:21.727Z,12.05
2022-08-22T04:01:21.719Z,12.06
2022-08-22T04:02:41.825Z,12.05
2022-08-22T04:03:21.758Z,12.05
2022-08-22T04:04:21.685Z,12.05
2022-08-22T04:05:21.725Z,12.04
2022-08-22T04:06:21.652Z,12.03
2022-08-22T04:07:32.270Z,12.03
2022-08-22T04:08:25.985Z,12.03
2022-08-22T04:09:21.643Z,12.03
2022-08-22T04:10:21.599Z,12.04
2022-08-22T04:11:21.629Z,12.05
2022-08-22T04:12:21.593Z,12.07
2022-08-22T04:13:21.587Z,12.08
2022-08-22T04:14:21.530Z,12.09
2022-08-22T04:15:21.633Z,12.12
2022-08-22T04:16:21.539Z,12.14
2022-08-22T04:17:21.498Z,12.15
2022-08-22T04:18:21.534Z,12.16
2022-08-22T04:19:21.484Z,12.18
2022-08-22T04:20:21.449Z,12.20
2022-08-22T04:21:21.485Z,12.23
2022-08-22T04:22:21.425Z,12.26
2022-08-22T04:23:21.534Z,12.28
2022-08-22T04:24:21.463Z,12.30
2022-08-22T04:25:21.408Z,12.33
2022-08-22T04:26:21.396Z,12.35
2022-08-22T04:27:21.356Z,12.38
2022-08-22T04:28:21.359Z,12.41
2022-08-22T04:29:21.353Z,12.42
2022-08-22T04:30:21.328Z,12.44
2022-08-22T04:31:21.308Z,12.46
2022-08-22T04:32:21.325Z,12.48
2022-08-22T04:33:21.298Z,12.49
2022-08-22T04:34:21.284Z,12.50
2022-08-22T04:35:21.249Z,12.52
2022-08-22T04:36:21.249Z,12.54
2022-08-22T04:37:21.255Z,12.54
2022-08-22T04:38:21.252Z,12.54
2022-08-22T04:39:21.214Z,12.54
2022-08-22T04:40:21.225Z,12.53
2022-08-22T04:41:21.166Z,12.54
2022-08-22T04:42:36.111Z,12.56
2022-08-22T04:43:21.147Z,12.57
2022-08-22T04:44:21.193Z,12.58
2022-08-22T04:45:21.115Z,12.59
2022-08-22T04:46:21.097Z,12.60
2022-08-22T04:47:21.097Z,12.59
2022-08-22T04:48:21.098Z,12.60
2022-08-22T04:49:21.068Z,12.62
2022-08-22T04:50:21.060Z,12.64
2022-08-22T04:51:21.072Z,12.67
2022-08-22T04:52:21.044Z,12.69
2022-08-22T04:53:21.015Z,12.72
2022-08-22T04:54:21.008Z,12.75
2022-08-22T04:55:20.996Z,12.76
2022-08-22T04:56:20.975Z,12.77
2022-08-22T04:57:20.982Z,12.77
2022-08-22T04:58:20.967Z,12.76
2022-08-22T04:59:20.950Z,12.76
2022-08-22T05:00:20.940Z,12.78
2022-08-22T05:01:21.008Z,12.80
2022-08-22T05:02:20.910Z,12.83
2022-08-22T05:03:20.889Z,12.86
2022-08-22T05:04:20.850Z,12.89
2022-08-22T05:05:20.884Z,12.90
2022-08-22T05:06:20.841Z,12.92
2022-08-22T05:07:20.851Z,12.94
2022-08-22T05:08:20.825Z,12.97
2022-08-22T05:09:20.788Z,12.99
2022-08-22T05:10:20.776Z,13.02
2022-08-22T05:11:20.769Z,13.04
2022-08-22T05:12:20.744Z,13.07
2022-08-22T05:13:20.803Z,13.09
2022-08-22T05:14:20.743Z,13.11
2022-08-22T05:15:23.287Z,13.12
2022-08-22T05:16:20.708Z,13.14
2022-08-22T05:17:20.700Z,13.16
2022-08-22T05:18:20.696Z,13.18
2022-08-22T05:19:28.461Z,13.21
2022-08-22T05:20:20.679Z,13.24
2022-08-22T05:21:20.651Z,13.29
2022-08-22T05:22:20.647Z,13.33
2022-08-22T05:23:20.624Z,13.38
2022-08-22T05:24:20.605Z,13.42
2022-08-22T05:25:20.605Z,13.47
2022-08-22T05:26:20.638Z,13.51
2022-08-22T05:27:20.574Z,13.56
2022-08-22T05:28:20.538Z,13.60
2022-08-22T05:29:20.532Z,13.64
2022-08-22T05:30:20.512Z,13.69
2022-08-22T05:31:23.198Z,13.74
2022-08-22T05:32:20.492Z,13.78
2022-08-22T05:33:20.493Z,13.83
2022-08-22T05:34:20.457Z,13.88
2022-08-22T05:35:20.459Z,13.94
2022-08-22T05:36:20.430Z,13.99
2022-08-22T05:37:20.451Z,14.04
2022-08-22T05:38:20.409Z,14.09
2022-08-22T05:39:20.394Z,14.13
2022-08-22T05:40:20.452Z,14.19
2022-08-22T05:41:20.385Z,14.24
2022-08-22T05:42:20.409Z,14.30
2022-08-22T05:43:20.340Z,14.35
2022-08-22T05:44:20.362Z,14.40
2022-08-22T05:45:20.346Z,14.45
2022-08-22T05:46:20.316Z,14.48
2022-08-22T05:47:20.292Z,14.51
2022-08-22T05:48:20.265Z,14.54
2022-08-22T05:49:20.257Z,14.59
2022-08-22T05:50:20.257Z,14.64
2022-08-22T05:51:20.235Z,14.68
2022-08-22T05:52:20.262Z,14.74
2022-08-22T05:53:20.200Z,14.80
2022-08-22T05:54:20.213Z,14.86
2022-08-22T05:55:20.204Z,14.93
2022-08-22T05:56:20.154Z,15.00
2022-08-22T05:57:20.146Z,15.09
2022-08-22T05:58:20.163Z,15.19
2022-08-22T05:59:20.118Z,15.28
2022-08-22T06:00:20.384Z,15.37
2022-08-22T06:01:20.141Z,15.47
2022-08-22T06:02:20.090Z,15.57
2022-08-22T06:03:20.076Z,15.68
2022-08-22T06:04:20.091Z,15.80
2022-08-22T06:05:20.037Z,15.92
2022-08-22T06:06:20.056Z,16.04
2022-08-22T06:07:20.015Z,16.14
2022-08-22T06:08:20.021Z,16.24
2022-08-22T06:09:19.995Z,16.35
2022-08-22T06:10:20.045Z,16.46
2022-08-22T06:11:19.978Z,16.57
2022-08-22T06:12:22.205Z,16.69
2022-08-22T06:13:24.478Z,16.79
2022-08-22T06:14:19.919Z,16.88
2022-08-22T06:15:20.767Z,16.97
2022-08-22T06:16:20.198Z,17.08
2022-08-22T06:17:19.910Z,17.20
2022-08-22T06:18:19.917Z,17.33
2022-08-22T06:19:20.287Z,17.43
2022-08-22T06:20:19.860Z,17.52
2022-08-22T06:21:19.925Z,17.62
2022-08-22T06:22:19.850Z,17.73
2022-08-22T06:23:19.846Z,17.80
2022-08-22T06:24:19.804Z,17.85
2022-08-22T06:25:19.813Z,17.91
2022-08-22T06:26:20.877Z,17.95
2022-08-22T06:27:19.780Z,17.97
2022-08-22T06:28:19.788Z,17.99
2022-08-22T06:29:19.775Z,18.02
2022-08-22T06:30:19.758Z,18.08
2022-08-22T06:31:19.721Z,18.16
2022-08-22T06:32:32.619Z,18.23
2022-08-22T06:33:19.692Z,18.29
2022-08-22T06:34:19.720Z,18.29
2022-08-22T06:35:19.692Z,18.25
2022-08-22T06:36:20.727Z,18.20
2022-08-22T06:37:19.654Z,18.18
2022-08-22T06:38:19.667Z,18.20
2022-08-22T06:39:19.584Z,18.24
2022-08-22T06:40:20.224Z,18.29
2022-08-22T06:41:19.939Z,18.34
2022-08-22T06:42:19.565Z,18.40
2022-08-22T06:43:19.847Z,18.48
2022-08-22T06:44:20.348Z,18.55
2022-08-22T06:45:20.513Z,18.61
2022-08-22T06:46:20.548Z,18.66
2022-08-22T06:47:19.837Z,18.74
2022-08-22T06:48:19.491Z,18.82
2022-08-22T06:49:19.450Z,18.86
2022-08-22T06:50:19.909Z,18.90
2022-08-22T06:51:19.441Z,18.97
2022-08-22T06:52:19.454Z,19.04
2022-08-22T06:53:19.414Z,19.10
2022-08-22T06:54:19.432Z,19.17
2022-08-22T06:55:20.443Z,19.19
2022-08-22T06:56:20.336Z,19.12
2022-08-22T06:57:19.345Z,19.05
2022-08-22T06:58:19.328Z,19.05
2022-08-22T06:59:19.369Z,19.11
2022-08-22T07:00:19.310Z,19.18
2022-08-22T07:01:19.344Z,19.21
2022-08-22T07:02:19.314Z,19.23
2022-08-22T07:03:19.277Z,19.26
2022-08-22T07:04:19.287Z,19.27
2022-08-22T07:05:19.284Z,19.27
2022-08-22T07:06:19.306Z,19.27
2022-08-22T07:07:19.231Z,19.29
2022-08-22T07:08:19.284Z,19.32
2022-08-22T07:09:19.203Z,19.34
2022-08-22T07:10:19.191Z,19.35
2022-08-22T07:11:19.311Z,19.40
2022-08-22T07:12:19.212Z,19.47
2022-08-22T07:13:19.231Z,19.56
2022-08-22T07:14:19.159Z,19.66
2022-08-22T07:15:19.104Z,19.73
2022-08-22T07:16:19.610Z,19.76
2022-08-22T07:17:19.597Z,19.77
2022-08-22T07:18:19.338Z,19.78
2022-08-22T07:19:20.007Z,19.82
2022-08-22T07:20:19.052Z,19.86
2022-08-22T07:21:19.023Z,19.89
2022-08-22T07:22:20.130Z,19.89
2022-08-22T07:23:19.632Z,19.90
2022-08-22T07:24:19.031Z,19.95
2022-08-22T07:25:20.432Z,20.04
2022-08-22T07:26:19.868Z,20.14
2022-08-22T07:27:19.150Z,20.22
2022-08-22T07:28:19.706Z,20.26
2022-08-22T07:29:19.500Z,20.30
2022-08-22T07:30:27.627Z,20.36
2022-08-22T07:31:19.002Z,20.43
2022-08-22T07:32:20.156Z,20.52
2022-08-22T07:33:26.385Z,20.62
2022-08-22T07:34:19.506Z,20.71
2022-08-22T07:35:18.842Z,20.78
2022-08-22T07:36:18.842Z,20.80
2022-08-22T07:37:18.819Z,20.78
2022-08-22T07:38:19.485Z,20.75
2022-08-22T07:39:21.455Z,20.72
2022-08-22T07:40:19.035Z,20.72
2022-08-22T07:41:19.438Z,20.72
2022-08-22T07:42:19.424Z,20.70
2022-08-22T07:43:19.559Z,20.66
2022-08-22T07:44:19.254Z,20.60
2022-08-22T07:45:18.704Z,20.55
2022-08-22T07:46:18.706Z,20.53
2022-08-22T07:47:26.512Z,20.52
2022-08-22T07:48:25.388Z,20.53
2022-08-22T07:49:18.668Z,20.56
2022-08-22T07:50:19.319Z,20.61
2022-08-22T07:51:19.089Z,20.71
2022-08-22T07:52:18.623Z,20.79
2022-08-22T07:53:18.587Z,20.83
2022-08-22T07:54:18.604Z,20.84
2022-08-22T07:55:19.057Z,20.83
2022-08-22T07:56:18.572Z,20.80
2022-08-22T07:57:18.995Z,20.83
2022-08-22T07:58:19.080Z,20.92
2022-08-22T07:59:18.669Z,21.02
2022-08-22T08:00:19.297Z,21.11
2022-08-22T08:01:18.542Z,21.21
2022-08-22T08:02:18.518Z,21.29
2022-08-22T08:03:18.740Z,21.33
2022-08-22T08:04:19.327Z,21.33
2022-08-22T08:05:19.166Z,21.32
2022-08-22T08:06:19.745Z,21.30
2022-08-22T08:07:19.315Z,21.27
2022-08-22T08:08:19.151Z,21.26
2022-08-22T08:09:18.945Z,21.25
2022-08-22T08:10:18.386Z,21.28
2022-08-22T08:11:18.566Z,21.34
2022-08-22T08:12:18.949Z,21.38
2022-08-22T08:13:18.798Z,21.41
2022-08-22T08:14:18.528Z,21.48
2022-08-22T08:15:18.324Z,21.59
2022-08-22T08:16:18.598Z,21.65
2022-08-22T08:17:18.639Z,21.70
2022-08-22T08:18:18.285Z,21.74
2022-08-22T08:19:18.246Z,21.77
2022-08-22T08:20:18.236Z,21.82
2022-08-22T08:21:18.219Z,21.85
2022-08-22T08:22:18.212Z,21.80
2022-08-22T08:23:18.507Z,21.72
2022-08-22T08:24:18.996Z,21.67
2022-08-22T08:25:18.892Z,21.61
2022-08-22T08:26:18.178Z,21.59
2022-08-22T08:27:18.139Z,21.61
2022-08-22T08:28:19.563Z,21.62
2022-08-22T08:29:18.918Z,21.61
2022-08-22T08:30:18.267Z,21.60
2022-08-22T08:31:18.807Z,21.60
2022-08-22T08:32:18.126Z,21.63
2022-08-22T08:33:25.738Z,21.72
2022-08-22T08:34:18.128Z,21.82
2022-08-22T08:35:18.671Z,21.90
2022-08-22T08:36:18.814Z,21.97
2022-08-22T08:37:18.054Z,22.06
2022-08-22T08:38:18.020Z,22.13
2022-08-22T08:39:18.384Z,22.16
2022-08-22T08:40:18.082Z,22.07
2022-08-22T08:41:22.438Z,21.97
2022-08-22T08:42:17.982Z,22.00
2022-08-22T08:43:19.463Z,22.11
2022-08-22T08:44:18.789Z,22.26
2022-08-22T08:45:17.987Z,22.43
2022-08-22T08:46:18.371Z,22.59
2022-08-22T08:47:18.008Z,22.62
2022-08-22T08:48:18.341Z,22.58
2022-08-22T08:49:18.033Z,22.56
2022-08-22T08:50:18.340Z,22.57
2022-08-22T08:51:18.888Z,22.60
2022-08-22T08:52:17.841Z,22.69
2022-08-22T08:53:18.204Z,22.85
2022-08-22T08:54:17.787Z,23.02
2022-08-22T08:55:22.081Z,23.12
2022-08-22T08:56:19.723Z,23.26
2022-08-22T08:57:17.844Z,23.32
2022-08-22T08:58:18.470Z,23.30
2022-08-22T08:59:18.005Z,23.38
2022-08-22T09:00:17.856Z,23.51
2022-08-22T09:01:19.500Z,23.62
2022-08-22T09:02:20.452Z,23.73
2022-08-22T09:03:24.027Z,23.86
2022-08-22T09:04:17.996Z,23.83
2022-08-22T09:05:18.733Z,23.72
2022-08-22T09:06:17.872Z,23.68
2022-08-22T09:07:17.617Z,23.61
2022-08-22T09:08:17.620Z,23.44
2022-08-22T09:09:17.620Z,23.24
2022-08-22T09:40:29.869Z,23.11
2022-08-22T09:40:35.369Z,23.26
2022-08-22T09:41:35.299Z,23.48
2022-08-22T09:42:35.317Z,23.64
2022-08-22T09:43:35.250Z,23.70
2022-08-22T09:44:39.652Z,23.62
2022-08-22T09:45:35.505Z,23.54
2022-08-22T09:46:36.634Z,23.54
2022-08-22T09:47:35.213Z,23.68
2022-08-22T09:48:35.240Z,23.97
2022-08-22T09:49:35.173Z,24.27
2022-08-22T09:50:35.194Z,24.47
2022-08-22T09:51:35.169Z,24.54
2022-08-22T09:52:36.846Z,24.54
2022-08-22T09:53:35.151Z,24.58
2022-08-22T09:54:35.128Z,24.66
2022-08-22T09:55:35.824Z,24.77
2022-08-22T09:56:35.109Z,24.83
2022-08-22T09:57:35.098Z,24.86
2022-08-22T09:58:40.243Z,24.93
2022-08-22T09:59:35.207Z,25.02
2022-08-22T10:00:35.067Z,25.13
2022-08-22T10:01:35.105Z,25.21
2022-08-22T10:02:35.977Z,25.24
2022-08-22T10:03:35.029Z,25.16
2022-08-22T10:04:35.008Z,25.08
2022-08-22T10:05:43.553Z,24.98
2022-08-22T10:06:34.980Z,24.89
2022-08-22T10:07:34.988Z,24.91
2022-08-22T10:08:34.968Z,25.02
2022-08-22T10:09:34.968Z,25.14
2022-08-22T10:10:34.965Z,25.05
2022-08-22T10:11:38.885Z,24.82
2022-08-22T10:12:36.345Z,24.66
2022-08-22T10:13:34.921Z,24.56
2022-08-22T10:14:34.905Z,24.55
2022-08-22T10:15:34.846Z,24.61
2022-08-22T10:16:34.861Z,24.69
2022-08-22T10:17:34.875Z,24.71
2022-08-22T10:18:34.975Z,24.73
2022-08-22T10:19:34.808Z,24.83
2022-08-22T10:20:34.836Z,25.00
2022-08-22T10:21:34.799Z,25.05
2022-08-22T10:22:34.795Z,25.05
2022-08-22T10:23:35.046Z,25.20
2022-08-22T10:24:36.049Z,25.30
2022-08-22T10:25:34.724Z,25.29
2022-08-22T10:26:38.610Z,25.37
2022-08-22T10:27:34.754Z,25.54
2022-08-22T10:28:34.711Z,25.55
2022-08-22T10:29:34.687Z,25.29
2022-08-22T10:30:35.259Z,25.13
2022-08-22T10:31:34.653Z,25.13
2022-08-22T10:32:35.021Z,25.17
2022-08-22T10:33:34.919Z,25.25
2022-08-22T10:34:34.643Z,25.43
2022-08-22T10:35:35.109Z,25.71
2022-08-22T10:36:35.268Z,25.84
2022-08-22T10:37:34.588Z,25.92
2022-08-22T10:38:43.971Z,26.20
2022-08-22T10:39:34.729Z,26.58
2022-08-22T10:40:34.580Z,26.85
2022-08-22T10:41:34.544Z,26.88
2022-08-22T10:42:35.481Z,26.78
2022-08-22T10:43:34.575Z,26.59
2022-08-22T10:44:34.967Z,26.49
2022-08-22T10:45:36.547Z,26.40
2022-08-22T10:46:34.520Z,26.17
2022-08-22T10:47:34.494Z,26.02
2022-08-22T10:48:35.071Z,26.04
2022-08-22T10:49:35.251Z,25.94
2022-08-22T10:50:34.426Z,25.79
2022-08-22T10:51:34.893Z,25.85
2022-08-22T10:52:34.466Z,25.93
2022-08-22T10:53:35.012Z,25.96
2022-08-22T10:54:34.371Z,25.97
2022-08-22T10:55:34.361Z,25.86
2022-08-22T10:56:34.385Z,25.60
2022-08-22T10:57:35.206Z,25.44
2022-08-22T10:58:34.317Z,25.39
2022-08-22T10:59:34.315Z,25.34
2022-08-22T11:00:34.345Z,25.25
2022-08-22T11:01:40.457Z,25.25
2022-08-22T11:02:34.302Z,25.35
2022-08-22T11:03:34.339Z,25.46
2022-08-22T11:04:35.150Z,25.56
2022-08-22T11:05:35.911Z,25.56
2022-08-22T11:06:34.982Z,25.49
2022-08-22T11:07:34.388Z,25.50
2022-08-22T11:08:34.819Z,25.56
2022-08-22T11:09:36.948Z,25.58
2022-08-22T11:10:34.888Z,25.46
2022-08-22T11:11:34.172Z,25.33
2022-08-22T11:12:35.025Z,25.29
2022-08-22T11:13:34.201Z,25.21
2022-08-22T11:14:34.134Z,25.06
2022-08-22T11:15:35.099Z,25.01
2022-08-22T11:16:36.803Z,25.03
2022-08-22T11:17:38.221Z,25.01
2022-08-22T11:18:34.149Z,24.94
2022-08-22T11:19:34.070Z,24.95
2022-08-22T11:20:34.051Z,24.99
2022-08-22T11:21:34.019Z,24.95
2022-08-22T11:22:34.014Z,24.92
2022-08-22T11:23:34.027Z,24.91
2022-08-22T11:24:35.451Z,24.90
2022-08-22T11:25:38.484Z,24.99
2022-08-22T11:26:41.386Z,25.13
2022-08-22T11:27:39.669Z,25.16
2022-08-22T11:28:33.938Z,25.13
2022-08-22T11:29:33.936Z,25.15
2022-08-22T11:30:36.438Z,25.17
2022-08-22T11:31:36.531Z,25.06
2022-08-22T11:32:33.890Z,24.92
2022-08-22T11:33:46.762Z,24.90
2022-08-22T11:34:33.890Z,24.94
2022-08-22T11:35:33.860Z,24.91
2022-08-22T11:36:33.858Z,24.74
2022-08-22T11:37:43.481Z,24.57
2022-08-22T11:38:33.836Z,24.51
2022-08-22T11:39:33.843Z,24.51
2022-08-22T11:40:33.815Z,24.46
2022-08-22T11:41:33.804Z,24.38
2022-08-22T11:42:33.921Z,24.36
2022-08-22T11:43:33.789Z,24.38
2022-08-22T11:44:34.457Z,24.38
2022-08-22T11:45:33.737Z,24.32
2022-08-22T11:46:33.729Z,24.30
2022-08-22T11:47:33.748Z,24.37
2022-08-22T11:48:33.763Z,24.50
2022-08-22T11:49:33.720Z,24.67
2022-08-22T11:50:33.652Z,24.85
2022-08-22T11:51:34.294Z,24.96
2022-08-22T11:52:33.670Z,24.95
2022-08-22T11:53:33.643Z,24.82
2022-08-22T11:54:33.621Z,24.70
2022-08-22T11:55:34.642Z,24.62
2022-08-22T11:56:33.613Z,24.53
2022-08-22T11:57:33.599Z,24.38
2022-08-22T11:58:33.572Z,24.22
2022-08-22T11:59:33.583Z,24.05
2022-08-22T12:00:33.557Z,23.97
2022-08-22T12:01:34.228Z,24.02
2022-08-22T12:02:33.582Z,24.11
2022-08-22T12:03:33.526Z,24.13
2022-08-22T12:04:33.535Z,24.13
2022-08-22T12:05:33.486Z,24.19
2022-08-22T12:06:34.687Z,24.35
2022-08-22T12:07:33.552Z,24.57
2022-08-22T12:08:33.445Z,24.75
2022-08-22T12:09:33.764Z,25.00
2022-08-22T12:10:33.463Z,25.24
2022-08-22T12:11:33.562Z,25.32
2022-08-22T12:12:33.386Z,25.31
2022-08-22T12:13:34.885Z,25.20
2022-08-22T12:14:33.458Z,25.10
2022-08-22T12:15:33.575Z,25.08
2022-08-22T12:16:33.337Z,25.04
2022-08-22T12:17:55.780Z,24.99
2022-08-22T12:18:33.340Z,24.98
2022-08-22T12:19:33.287Z,24.94
2022-08-22T12:20:33.273Z,25.00
2022-08-22T12:21:33.348Z,25.04
2022-08-22T12:22:33.251Z,25.10
2022-08-22T12:23:43.301Z,25.05
2022-08-22T12:24:33.532Z,24.89
2022-08-22T12:25:33.437Z,24.99
2022-08-22T12:26:33.207Z,25.36
2022-08-22T12:27:33.256Z,25.69
2022-08-22T12:28:33.170Z,25.96
2022-08-22T12:29:33.914Z,26.30
2022-08-22T12:30:33.165Z,26.57
2022-08-22T12:31:33.177Z,26.54
2022-08-22T12:32:33.159Z,26.45
2022-08-22T12:33:33.200Z,26.40
2022-08-22T12:34:33.092Z,26.36
2022-08-22T12:35:33.184Z,26.21
2022-08-22T12:36:33.085Z,25.97
2022-08-22T12:37:33.145Z,25.84
2022-08-22T12:38:37.744Z,25.70
2022-08-22T12:39:33.114Z,25.44
2022-08-22T12:40:33.185Z,25.29
2022-08-22T12:41:35.038Z,25.30
2022-08-22T12:42:33.008Z,25.35
2022-08-22T12:43:33.246Z,25.51
2022-08-22T12:44:33.007Z,25.82
2022-08-22T12:45:33.139Z,26.04
2022-08-22T12:46:32.955Z,26.16
2022-08-22T12:47:34.308Z,26.22
2022-08-22T12:48:32.928Z,26.27
2022-08-22T12:49:32.982Z,26.32
2022-08-22T12:50:32.976Z,26.38
2022-08-22T12:51:33.091Z,26.39
2022-08-22T12:52:33.155Z,26.38
2022-08-22T12:53:32.872Z,26.40
2022-08-22T12:54:32.861Z,26.36
2022-08-22T12:55:32.877Z,26.28
2022-08-22T12:56:32.836Z,26.28
2022-08-22T12:57:32.873Z,26.11
2022-08-22T12:58:33.953Z,25.99
2022-08-22T12:59:32.869Z,26.15
2022-08-22T13:00:32.979Z,26.42
2022-08-22T13:01:34.209Z,26.80
2022-08-22T13:02:32.832Z,27.05
2022-08-22T13:03:32.816Z,26.97
2022-08-22T13:04:34.093Z,26.77
2022-08-22T13:05:34.250Z,26.64
2022-08-22T13:06:32.725Z,26.68
2022-08-22T13:07:32.866Z,26.73
2022-08-22T13:08:32.677Z,26.73
2022-08-22T13:09:33.520Z,26.69
2022-08-22T13:10:34.635Z,26.46
2022-08-22T13:11:32.784Z,26.19
2022-08-22T13:12:32.711Z,25.99
2022-08-22T13:13:37.305Z,25.75
2022-08-22T13:14:32.601Z,25.46
2022-08-22T13:15:33.210Z,25.13
2022-08-22T13:16:32.585Z,24.90
2022-08-22T13:17:33.042Z,24.79
2022-08-22T13:18:32.746Z,24.76
2022-08-22T13:19:33.097Z,24.83
2022-08-22T13:20:32.701Z,24.95
2022-08-22T13:21:36.199Z,25.13
2022-08-22T13:22:32.494Z,25.24
2022-08-22T13:23:32.521Z,25.24